Time;durP1;ratioP1;P1;durP2;ratioP2;P2;SDS_P1;SDS_P2;PMS_P1;PMS_P2;Temp;Humidity;BMP_temperature;BMP_pressure;BME280_temperature;BME280_humidity;BME280_pressure;Samples;Min_cycle;Max_cycle;Signal;HPM_P1;HPM_P2
2024/01/28 00:00:44;;;;;;;14.38;6.28;;;-0.50;99.90;;;;;;5067654;28;20023;-73
2024/01/28 00:03:10;;;;;;;16.52;6.53;;;-0.50;99.90;;;;;;5064454;28;20028;-73
2024/01/28 00:05:36;;;;;;;17.00;6.65;;;-0.60;99.90;;;;;;5069841;28;20024;-73
2024/01/28 00:08:06;;;;;;;20.08;7.72;;;-0.70;99.90;;;;;;5056232;28;20493;-73
2024/01/28 00:10:32;;;;;;;19.50;8.40;;;-0.70;99.90;;;;;;5068516;28;20021;-73
2024/01/28 00:12:58;;;;;;;16.02;6.53;;;-0.70;99.90;;;;;;5060697;28;20020;-73
2024/01/28 00:15:23;;;;;;;20.23;7.50;;;-0.70;99.90;;;;;;5041583;28;20447;-72
2024/01/28 00:17:56;;;;;;;13.85;7.22;;;-0.70;99.90;;;;;;5038566;28;20036;-73
2024/01/28 00:20:22;;;;;;;19.23;7.97;;;-0.70;99.90;;;;;;5068048;28;20448;-73
2024/01/28 00:22:48;;;;;;;18.92;7.45;;;-0.70;99.90;;;;;;5068628;28;20012;-73
2024/01/28 00:25:15;;;;;;;15.45;7.05;;;-0.80;99.90;;;;;;5057402;28;20126;-74
2024/01/28 00:27:41;;;;;;;20.90;7.93;;;-0.80;99.90;;;;;;5067448;28;20024;-73
2024/01/28 00:30:08;;;;;;;16.42;6.60;;;-0.80;99.90;;;;;;5054375;28;20693;-74
2024/01/28 00:32:34;;;;;;;19.83;6.88;;;-0.80;99.90;;;;;;5067808;28;20048;-73
2024/01/28 00:35:00;;;;;;;12.95;6.63;;;-0.90;99.90;;;;;;5066470;28;20116;-73
2024/01/28 00:37:25;;;;;;;14.35;6.90;;;-0.90;99.90;;;;;;5065158;28;20664;-74
2024/01/28 00:39:51;;;;;;;16.55;6.40;;;-0.90;99.90;;;;;;5067473;28;20067;-73
2024/01/28 00:42:17;;;;;;;16.67;7.68;;;-1.00;99.90;;;;;;5057178;28;20166;-73
2024/01/28 00:44:42;;;;;;;16.10;7.97;;;-1.00;99.90;;;;;;5067204;28;20047;-73
2024/01/28 00:47:08;;;;;;;16.75;7.30;;;;;;;;;;5066413;28;20016;-73
2024/01/28 00:49:34;;;;;;;15.68;7.63;;;;;;;;;;5054626;28;20024;-73
2024/01/28 00:52:02;;;;;;;18.08;7.93;;;;;;;;;;5067652;28;20016;-73
2024/01/28 00:54:28;;;;;;;20.00;8.20;;;;;;;;;;5062128;28;20021;-73
2024/01/28 00:56:54;;;;;;;19.50;7.43;;;;;;;;;;5067745;28;20021;-73
2024/01/28 00:59:20;;;;;;;21.05;9.23;;;;;;;;;;5067759;28;20020;-73
2024/01/28 01:01:46;;;;;;;19.30;8.68;;;;;;;;;;5066615;28;20028;-73
2024/01/28 01:04:12;;;;;;;20.95;9.65;;;;;;;;;;5060523;28;20021;-73
2024/01/28 01:06:39;;;;;;;19.13;7.82;;;;;;;;;;5049474;28;20404;-73
2024/01/28 01:09:07;;;;;;;18.13;8.77;;;;;;;;;;5065959;28;20659;-74
2024/01/28 01:11:33;;;;;;;16.63;7.63;;;;;;;;;;5068678;28;20024;-73
2024/01/28 01:13:59;;;;;;;14.20;7.35;;;;;;;;;;5059880;28;20044;-73
2024/01/28 01:16:25;;;;;;;20.60;8.63;;;;;;;;;;5068584;28;20511;-73
2024/01/28 01:18:51;;;;;;;19.33;9.32;;;;;;;;;;5050719;28;20037;-73
2024/01/28 01:21:17;;;;;;;18.85;7.60;;;;;;;;;;5066899;28;20039;-73
2024/01/28 01:23:43;;;;;;;25.05;8.82;;;;;;;;;;5060687;28;20045;-74
2024/01/28 01:26:10;;;;;;;17.52;8.43;;;;;;;;;;5056608;28;20119;-73
2024/01/28 01:28:36;;;;;;;16.90;7.95;;;;;;;;;;5078873;28;20078;-73
2024/01/28 01:31:02;;;;;;;16.27;8.52;;;;;;;;;;5058331;28;20541;-73
2024/01/28 01:33:29;;;;;;;16.52;8.50;;;;;;;;;;5056533;28;20052;-73
2024/01/28 01:35:54;;;;;;;18.88;7.85;;;;;;;;;;5066182;28;20108;-73
2024/01/28 01:38:21;;;;;;;23.42;8.38;;;;;;;;;;5056620;28;20125;-73
2024/01/28 01:40:47;;;;;;;21.98;8.40;;;;;;;;;;5056667;28;20070;-74
2024/01/28 01:43:15;;;;;;;14.82;7.75;;;;;;;;;;5054859;28;20070;-73
2024/01/28 01:45:41;;;;;;;20.08;8.20;;;;;;;;;;5049841;28;20077;-73
2024/01/28 01:48:10;;;;;;;12.85;7.57;;;;;;;;;;5065948;28;20029;-74
2024/01/28 01:50:36;;;;;;;15.88;7.97;;;;;;;;;;5064530;28;20048;-73
2024/01/28 01:53:04;;;;;;;16.08;7.93;;;;;;;;;;5041270;28;20048;-73
2024/01/28 01:55:30;;;;;;;16.52;8.07;;;;;;;;;;5064643;28;20068;-74
2024/01/28 01:57:56;;;;;;;16.15;7.97;;;;;;;;;;5058885;28;20032;-73
2024/01/28 02:00:22;;;;;;;19.70;8.00;;;;;;;;;;5053667;28;20028;-73
2024/01/28 02:02:49;;;;;;;17.23;8.63;;;;;;;;;;5053931;28;20035;-73
2024/01/28 02:05:15;;;;;;;18.42;8.35;;;;;;;;;;5060077;28;20159;-73
2024/01/28 02:07:42;;;;;;;16.63;8.90;;;;;;;;;;5051489;28;20090;-74
2024/01/28 02:10:09;;;;;;;20.77;9.07;;;;;;;;;;5052217;28;20125;-73
2024/01/28 02:12:37;;;;;;;18.00;8.57;;;;;;;;;;5061227;28;20017;-73
2024/01/28 02:15:06;;;;;;;16.77;8.23;;;;;;;;;;5065444;28;20095;-73
2024/01/28 02:17:32;;;;;;;22.83;9.90;;;;;;;;;;5067844;28;20385;-74
2024/01/28 02:19:58;;;;;;;20.63;9.48;;;;;;;;;;5062767;28;20028;-73
2024/01/28 02:22:25;;;;;;;17.60;8.98;;;;;;;;;;5063554;28;20025;-73
2024/01/28 02:24:51;;;;;;;25.30;9.43;;;;;;;;;;5064748;28;20460;-73
2024/01/28 02:27:18;;;;;;;21.77;9.32;;;;;;;;;;5049707;28;20382;-74
2024/01/28 02:29:45;;;;;;;19.15;9.50;;;;;;;;;;5061232;28;20082;-74
2024/01/28 02:32:15;;;;;;;18.17;9.27;;;;;;;;;;5049294;28;20481;-73
2024/01/28 02:34:42;;;;;;;15.68;8.73;;;;;;;;;;5066125;28;20390;-73
2024/01/28 02:37:09;;;;;;;18.10;9.10;;;;;;;;;;5066475;28;20028;-73
2024/01/28 02:39:36;;;;;;;19.08;9.00;;;;;;;;;;5066141;28;20020;-73
2024/01/28 02:42:02;;;;;;;15.73;9.13;;;;;;;;;;5056014;28;20021;-73
2024/01/28 02:44:28;;;;;;;19.38;8.75;;;;;;;;;;5063686;28;20538;-73
2024/01/28 02:46:55;;;;;;;16.80;7.97;;;;;;;;;;5047285;28;20039;-73
2024/01/28 02:49:23;;;;;;;21.88;8.90;;;;;;;;;;5065822;28;20075;-73
2024/01/28 02:51:49;;;;;;;22.55;9.90;;;;;;;;;;5066276;28;20016;-73
2024/01/28 02:54:15;;;;;;;20.40;9.07;;;;;;;;;;5065956;28;20107;-73
2024/01/28 02:56:42;;;;;;;19.30;9.15;;;;;;;;;;5067283;28;20028;-73
2024/01/28 02:59:08;;;;;;;15.40;8.27;;;;;;;;;;5035391;28;20172;-73
2024/01/28 03:01:34;;;;;;;17.48;9.63;;;;;;;;;;5067402;28;20059;-73
2024/01/28 03:04:00;;;;;;;16.25;10.05;;;;;;;;;;5042017;28;20028;-73
2024/01/28 03:06:26;;;;;;;17.70;9.27;;;;;;;;;;5067154;28;20020;-73
2024/01/28 03:08:52;;;;;;;21.05;9.80;;;;;;;;;;5050946;28;20496;-73
2024/01/28 03:11:18;;;;;;;17.85;9.25;;;;;;;;;;5067116;28;20481;-73
2024/01/28 03:13:44;;;;;;;20.42;8.98;;;;;;;;;;5042963;28;20028;-74
2024/01/28 03:16:10;;;;;;;17.10;9.30;;;;;;;;;;5061562;28;20047;-73
2024/01/28 03:18:36;;;;;;;19.42;9.52;;;;;;;;;;5052906;28;20033;-73
2024/01/28 03:21:02;;;;;;;23.50;10.10;;;;;;;;;;5058601;28;20029;-73
2024/01/28 03:23:29;;;;;;;21.88;10.10;;;;;;;;;;5065991;28;20103;-74
2024/01/28 03:25:55;;;;;;;21.73;10.18;;;;;;;;;;5064874;28;20078;-73
2024/01/28 03:28:21;;;;;;;23.13;10.95;;;;;;;;;;5066445;28;20051;-73
2024/01/28 03:30:47;;;;;;;19.65;10.02;;;;;;;;;;5065495;28;20040;-73
2024/01/28 03:33:13;;;;;;;22.58;10.27;;;;;;;;;;5061170;28;20021;-73
2024/01/28 03:35:39;;;;;;;22.88;10.80;;;;;;;;;;5043396;28;20461;-73
2024/01/28 03:38:06;;;;;;;20.77;11.57;;;;;;;;;;5065619;28;20028;-73
2024/01/28 03:40:32;;;;;;;23.65;12.38;;;;;;;;;;5069547;28;20024;-73
2024/01/28 03:42:58;;;;;;;25.10;11.63;;;;;;;;;;5054319;28;20021;-73
2024/01/28 03:45:25;;;;;;;27.40;13.00;;;;;;;;;;5070082;28;20036;-73
2024/01/28 03:47:51;;;;;;;23.70;11.75;;;;;;;;;;5062721;28;20020;-73
2024/01/28 03:50:19;;;;;;;27.27;12.80;;;;;;;;;;5054465;28;20449;-74
2024/01/28 03:52:46;;;;;;;24.17;12.85;;;;;;;;;;5034845;28;20440;-74
2024/01/28 03:55:12;;;;;;;21.35;11.40;;;;;;;;;;5068194;28;20481;-73
2024/01/28 03:57:43;;;;;;;22.27;11.77;;;;;;;;;;5054942;28;20459;-73
2024/01/28 04:00:11;;;;;;;28.05;11.43;;;;;;;;;;5050681;28;20051;-73
2024/01/28 04:02:37;;;;;;;24.48;10.35;;;;;;;;;;5070087;28;20513;-73
2024/01/28 04:05:04;;;;;;;21.25;10.95;;;;;;;;;;5067033;28;20035;-73
2024/01/28 04:07:30;;;;;;;24.15;11.95;;;;;;;;;;5033888;28;20025;-74
2024/01/28 04:09:56;;;;;;;25.38;11.43;;;;;;;;;;5060428;28;20020;-72
2024/01/28 04:12:22;;;;;;;21.83;11.50;;;;;;;;;;5061980;28;20013;-72
2024/01/28 04:14:48;;;;;;;24.25;11.75;;;;;;;;;;5048313;28;20453;-72
2024/01/28 04:17:14;;;;;;;19.75;10.18;;;;;;;;;;5050263;28;20056;-72
2024/01/28 04:19:40;;;;;;;23.58;12.07;;;;;;;;;;5062330;28;20029;-73
2024/01/28 04:22:10;;;;;;;23.67;13.75;;;;;;;;;;5055336;28;20187;-74
2024/01/28 04:24:36;;;;;;;25.25;12.23;;;;;;;;;;5036890;28;20053;-73
2024/01/28 04:27:03;;;;;;;22.00;11.02;;;;;;;;;;5068194;28;20073;-72
2024/01/28 04:29:29;;;;;;;22.13;11.40;;;;;;;;;;5062381;28;20389;-72
2024/01/28 04:31:56;;;;;;;29.90;11.88;;;;;;;;;;5061196;28;20491;-72
2024/01/28 04:34:23;;;;;;;26.95;14.13;;;;;;;;;;5036130;28;20083;-72
2024/01/28 04:36:49;;;;;;;45.78;17.83;;;;;;;;;;5033935;28;20493;-72
2024/01/28 04:39:15;;;;;;;43.92;16.83;;;;;;;;;;5067380;28;20033;-72
2024/01/28 04:41:41;;;;;;;38.30;16.65;;;;;;;;;;5060681;28;20032;-73
2024/01/28 04:44:08;;;;;;;27.30;14.40;;;;;;;;;;5047947;28;20298;-72
2024/01/28 04:46:34;;;;;;;32.15;14.52;;;;;;;;;;5060179;28;20397;-72
2024/01/28 04:49:03;;;;;;;30.70;14.05;;;;;;;;;;5055485;28;20017;-72
2024/01/28 04:51:30;;;;;;;26.92;12.77;;;;;;;;;;5050136;28;20013;-74
2024/01/28 04:53:57;;;;;;;28.50;14.70;;;;;;;;;;5067358;28;20523;-71
2024/01/28 04:56:23;;;;;;;29.50;13.27;;;;;;;;;;5060662;28;20025;-72
2024/01/28 04:58:49;;;;;;;25.55;12.93;;;;;;;;;;5048610;28;20485;-72
2024/01/28 05:01:15;;;;;;;25.13;14.75;;;;;;;;;;5057563;28;20017;-72
2024/01/28 05:03:41;;;;;;;25.15;13.50;;;;;;;;;;5063527;28;20025;-72
2024/01/28 05:06:07;;;;;;;23.42;12.77;;;;;;;;;;5048994;28;20655;-72
2024/01/28 05:08:33;;;;;;;24.75;12.20;;;;;;;;;;5067462;28;20024;-72
2024/01/28 05:10:59;;;;;;;27.00;14.70;;;;;;;;;;5045870;28;20012;-72
2024/01/28 05:13:25;;;;;;;21.10;12.75;;;;;;;;;;5067340;28;20469;-72
2024/01/28 05:15:51;;;;;;;27.75;13.10;;;;;;;;;;5067457;28;20036;-73
2024/01/28 05:18:18;;;;;;;27.90;14.43;;;;;;;;;;5065797;28;20028;-72
2024/01/28 05:20:44;;;;;;;30.25;14.80;;;;;;;;;;5068043;28;20033;-73
2024/01/28 05:23:10;;;;;;;26.88;14.20;;;;;;;;;;5066835;28;20043;-72
2024/01/28 05:25:36;;;;;;;28.42;14.23;;;;;;;;;;5068080;28;20036;-72
2024/01/28 05:28:03;;;;;;;29.95;13.93;;;;;;;;;;5064362;28;20029;-72
2024/01/28 05:30:29;;;;;;;33.63;15.70;;;;;;;;;;5057795;28;20025;-72
2024/01/28 05:32:55;;;;;;;30.50;14.70;;;;;;;;;;5054697;28;20047;-72
2024/01/28 05:35:22;;;;;;;32.00;14.63;;;;;;;;;;5066674;28;20036;-72
2024/01/28 05:37:48;;;;;;;30.95;14.48;;;;;;;;;;5058609;28;20099;-74
2024/01/28 05:40:14;;;;;;;32.88;15.88;;;;;;;;;;5068445;28;20024;-73
2024/01/28 05:42:40;;;;;;;34.38;15.82;;;;;;;;;;5054300;28;20032;-72
2024/01/28 05:45:06;;;;;;;37.58;17.75;;;;;;;;;;5065777;28;20028;-72
2024/01/28 05:47:33;;;;;;;39.97;17.73;;;;;;;;;;5047564;28;20020;-72
2024/01/28 05:49:59;;;;;;;30.52;16.13;;;;;;;;;;5050364;28;20185;-72
2024/01/28 05:52:25;;;;;;;28.52;14.82;;;;;;;;;;5054590;28;20025;-72
2024/01/28 05:54:51;;;;;;;28.10;14.45;;;;;;;;;;5061084;28;20017;-73
2024/01/28 05:57:17;;;;;;;25.25;13.32;;;;;;;;;;5064936;28;20082;-74
2024/01/28 05:59:43;;;;;;;27.45;13.95;;;;;;;;;;5049511;28;20017;-72
2024/01/28 06:02:09;;;;;;;25.65;13.85;;;;;;;;;;5042025;28;20024;-72
2024/01/28 06:04:35;;;;;;;23.48;13.20;;;;;;;;;;5061297;28;20079;-73
2024/01/28 06:07:02;;;;;;;29.17;13.55;;;;;;;;;;5064919;28;20024;-72
2024/01/28 06:09:28;;;;;;;33.42;13.90;;;;;;;;;;5045741;28;20033;-72
2024/01/28 06:11:55;;;;;;;24.88;14.57;;;;;;;;;;5061086;28;20024;-72
2024/01/28 06:14:23;;;;;;;26.20;14.15;;;;;;;;;;5058262;28;20025;-74
2024/01/28 06:16:49;;;;;;;30.38;15.02;;;;;;;;;;5068817;28;20032;-74
2024/01/28 06:19:15;;;;;;;27.70;14.30;;;;;;;;;;5066715;28;20439;-74
2024/01/28 06:21:41;;;;;;;29.02;14.75;;;;;;;;;;5072003;28;20025;-73
2024/01/28 06:24:08;;;;;;;28.25;14.48;;;;;;;;;;5076718;28;20229;-73
2024/01/28 06:26:36;;;;;;;30.02;14.20;;;;;;;;;;5082024;28;20048;-73
2024/01/28 06:29:03;;;;;;;27.13;14.20;;;;;;;;;;5076750;28;20477;-72
2024/01/28 06:31:29;;;;;;;26.67;13.30;;;;;;;;;;5067733;28;20418;-73
2024/01/28 06:33:55;;;;;;;26.20;14.02;;;;;;;;;;5070417;28;20032;-72
2024/01/28 06:36:21;;;;;;;29.05;14.32;;;;;;;;;;5055857;28;20036;-72
2024/01/28 06:38:47;;;;;;;29.45;15.93;;;;;;;;;;5042973;28;20480;-72
2024/01/28 06:41:16;;;;;;;29.48;14.77;;;;;;;;;;5068131;28;20050;-72
2024/01/28 06:43:42;;;;;;;31.03;15.57;;;;;;;;;;5067692;28;20289;-73
2024/01/28 06:46:08;;;;;;;35.30;16.17;;;;;;;;;;5066957;28;20028;-73
2024/01/28 06:48:34;;;;;;;33.83;15.95;;;;;;;;;;5066807;28;20025;-73
2024/01/28 06:51:04;;;;;;;30.08;15.80;;;;;;;;;;5064316;28;20035;-75
2024/01/28 06:53:30;;;;;;;27.98;14.10;;;;;;;;;;5064626;28;20020;-75
2024/01/28 06:55:56;;;;;;;33.90;15.85;;;;;;;;;;5064738;28;20042;-75
2024/01/28 06:58:22;;;;;;;27.77;14.02;;;;;;;;;;5063129;28;20035;-73
2024/01/28 07:00:48;;;;;;;34.03;16.08;;;;;;;;;;5063770;28;20032;-73
2024/01/28 07:03:14;;;;;;;30.05;14.77;;;;;;;;;;5065728;28;20520;-73
2024/01/28 07:05:40;;;;;;;29.08;15.50;;;;;;;;;;5050588;28;20025;-73
2024/01/28 07:08:08;;;;;;;30.50;16.10;;;;;;;;;;5064820;28;20021;-73
2024/01/28 07:10:34;;;;;;;38.63;17.65;;;;;;;;;;5065983;28;20106;-73
2024/01/28 07:13:03;;;;;;;32.15;17.33;;;;;;;;;;5068748;28;20551;-76
2024/01/28 07:15:29;;;;;;;34.05;16.50;;;;;;;;;;5051126;28;20024;-73
2024/01/28 07:17:55;;;;;;;38.47;17.13;;;;;;;;;;5065522;28;20120;-73
2024/01/28 07:20:22;;;;;;;34.53;16.63;;;;;;;;;;5071408;28;20040;-74
2024/01/28 07:22:48;;;;;;;36.47;15.88;;;;;;;;;;5068683;28;20021;-73
2024/01/28 07:25:15;;;;;;;34.92;18.02;;;;;;;;;;5068057;28;20038;-74
2024/01/28 07:27:41;;;;;;;33.42;17.05;;;;;;;;;;5052369;28;20032;-74
2024/01/28 07:30:07;;;;;;;32.80;16.40;;;;;;;;;;5066643;28;20582;-72
2024/01/28 07:32:34;;;;;;;35.72;17.38;;;;;;;;;;5068165;28;20025;-72
2024/01/28 07:35:00;;;;;;;36.03;15.85;;;;;;;;;;5064033;28;20028;-75
2024/01/28 07:37:26;;;;;;;36.63;16.70;;;;;;;;;;5050005;28;20306;-75
2024/01/28 07:39:52;;;;;;;30.88;16.38;;;;;;;;;;5064748;28;20385;-73
2024/01/28 07:42:18;;;;;;;29.13;15.57;;;;;;;;;;5069780;28;20017;-73
2024/01/28 07:44:44;;;;;;;32.58;16.27;;;;;;;;;;5049254;28;20440;-74
2024/01/28 07:47:11;;;;;;;38.42;18.52;;;;;;;;;;5051490;28;20124;-73
2024/01/28 07:49:36;;;;;;;33.83;17.65;;;;;;;;;;5046836;28;20099;-74
2024/01/28 07:52:03;;;;;;;36.05;17.23;;;;;;;;;;5065305;28;20104;-73
2024/01/28 07:54:30;;;;;;;35.58;17.33;;;;;;;;;;5066347;28;20052;-73
2024/01/28 07:56:57;;;;;;;40.80;18.60;;;;;;;;;;5066611;28;20025;-72
2024/01/28 07:59:23;;;;;;;37.10;18.45;;;;;;;;;;5066743;28;20473;-72
2024/01/28 08:01:49;;;;;;;35.75;18.30;;;;;;;;;;5065179;28;20099;-72
2024/01/28 08:04:15;;;;;;;35.90;19.40;;;;;;;;;;5069703;28;20025;-72
2024/01/28 08:06:41;;;;;;;37.50;17.67;;;;;;;;;;5065411;28;20104;-72
2024/01/28 08:09:08;;;;;;;39.72;19.45;;;;;;;;;;5062585;28;20577;-73
2024/01/28 08:11:34;;;;;;;38.08;19.15;;;;;;;;;;5048827;28;20024;-73
2024/01/28 08:14:00;;;;;;;43.42;21.60;;;;;;;;;;5047532;28;20389;-72
2024/01/28 08:16:26;;;;;;;47.70;24.20;;;;;;;;;;5066003;28;20029;-73
2024/01/28 08:18:53;;;;;;;46.00;25.05;;;;;;;;;;5066410;28;20363;-73
2024/01/28 08:21:19;;;;;;;43.65;21.15;;;;;;;;;;5072841;28;20055;-72
2024/01/28 08:23:46;;;;;;;39.20;19.45;;;;;;;;;;5051572;28;20470;-73
2024/01/28 08:26:15;;;;;;;34.15;18.90;;;;;;;;;;5041205;28;20041;-75
2024/01/28 08:28:41;;;;;;;44.03;23.00;;;;;;;;;;5070972;28;20060;-72
2024/01/28 08:31:07;;;;;;;40.85;22.73;;;;;;;;;;5073925;28;20061;-73
2024/01/28 08:33:33;;;;;;;34.78;18.42;;;;;;;;;;5051843;28;20024;-72
2024/01/28 08:35:59;;;;;;;28.50;18.02;;;;;;;;;;5061085;28;20094;-73
2024/01/28 08:38:26;;;;;;;31.50;16.70;;;;;;;;;;5067692;28;20028;-75
2024/01/28 08:40:53;;;;;;;27.80;16.75;;;;;;;;;;5049390;28;20397;-72
2024/01/28 08:43:19;;;;;;;34.20;17.55;;;;;;;;;;5052934;28;20611;-73
2024/01/28 08:45:47;;;;;;;29.88;17.27;;;;;;;;;;5053877;28;20477;-76
2024/01/28 08:48:13;;;;;;;26.75;17.17;;;;;;;;;;5073630;28;20028;-74
2024/01/28 08:50:40;;;;;;;29.95;17.95;;;;;;;;;;5062867;28;20040;-73
2024/01/28 08:53:07;;;;;;;26.67;17.45;;;;;;;;;;5068550;28;20020;-75
2024/01/28 08:55:33;;;;;;;31.70;18.13;;;;;;;;;;5078177;28;20028;-73
2024/01/28 08:57:59;;;;;;;30.80;18.52;;;;;;;;;;5071237;28;20040;-73
2024/01/28 09:00:25;;;;;;;27.90;17.63;;;;;;;;;;5061484;28;20036;-71
2024/01/28 09:02:51;;;;;;;30.63;18.52;;;;;;;;;;5070958;28;20108;-73
2024/01/28 09:05:17;;;;;;;28.88;18.23;;;;;;;;;;5075051;28;20043;-72
2024/01/28 09:07:45;;;;;;;31.75;17.80;;;;;;;;;;5068711;28;20020;-73
2024/01/28 09:10:11;;;;;;;26.33;15.68;;;;;;;;;;5065576;28;20101;-73
2024/01/28 09:12:37;;;;;;;29.60;15.70;;;;;;;;;;5067538;28;20571;-73
2024/01/28 09:15:03;;;;;;;24.67;15.07;;;;;;;;;;5071352;28;20059;-73
2024/01/28 09:17:29;;;;;;;25.15;15.88;;;;;;;;;;5063548;28;20021;-73
2024/01/28 09:19:56;;;;;;;36.55;17.77;;;;;;;;;;5062539;28;20071;-73
2024/01/28 09:22:22;;;;;;;28.55;16.42;;;;;;;;;;5046510;28;20045;-73
2024/01/28 09:24:50;;;;;;;28.60;15.57;;;;;;;;;;5057704;28;20028;-73
2024/01/28 09:27:17;;;;;;;24.05;14.45;;;;;;;;;;5059439;28;20529;-76
2024/01/28 09:29:44;;;;;;;23.00;13.38;;;;;;;;;;5068571;28;20035;-73
2024/01/28 09:32:10;;;;;;;22.17;11.95;;;;;;;;;;5053029;28;20020;-73
2024/01/28 09:34:35;;;;;;;21.35;11.05;;;2.20;99.90;;;;;;5049316;28;20046;-73
2024/01/28 09:37:01;;;;;;;19.20;10.13;;;2.20;99.90;;;;;;5078675;28;20032;-73
2024/01/28 09:39:28;;;;;;;20.48;10.68;;;2.20;99.90;;;;;;5071703;28;20111;-73
2024/01/28 09:42:10;;;;;;;20.23;10.70;;;2.20;99.90;;;;;;5067565;28;20020;-73
2024/01/28 09:44:36;;;;;;;19.33;10.77;;;2.20;99.90;;;;;;5069738;28;20031;-73
2024/01/28 09:47:02;;;;;;;17.23;10.32;;;2.20;99.90;;;;;;5042032;28;20027;-73
2024/01/28 09:49:30;;;;;;;15.43;10.13;;;2.40;99.90;;;;;;5049392;28;20074;-72
2024/01/28 09:51:57;;;;;;;16.25;10.30;;;2.40;99.90;;;;;;5042277;28;20107;-72
2024/01/28 09:54:24;;;;;;;16.60;9.15;;;2.50;99.90;;;;;;5071098;28;20025;-73
2024/01/28 09:56:50;;;;;;;16.63;10.93;;;2.60;99.90;;;;;;5057776;28;20048;-71
2024/01/28 09:59:16;;;;;;;26.55;11.63;;;2.60;99.90;;;;;;5067715;28;20053;-72
2024/01/28 10:01:44;;;;;;;17.00;10.52;;;2.80;99.90;;;;;;5053479;28;20040;-72
2024/01/28 10:04:15;;;;;;;20.55;11.27;;;2.90;99.90;;;;;;5065209;28;20028;-72
2024/01/28 10:06:41;;;;;;;17.95;9.45;;;3.00;99.90;;;;;;5065795;28;20020;-72
2024/01/28 10:09:07;;;;;;;19.55;10.50;;;3.10;99.90;;;;;;5070798;28;20028;-72
2024/01/28 10:11:33;;;;;;;16.25;9.93;;;3.20;99.90;;;;;;5064715;28;20031;-71
2024/01/28 10:13:59;;;;;;;16.92;9.30;;;3.40;99.90;;;;;;5064143;28;20397;-72
2024/01/28 10:16:24;;;;;;;22.70;10.45;;;3.50;99.90;;;;;;5066016;28;20028;-72
2024/01/28 10:18:50;;;;;;;19.67;10.10;;;3.60;99.90;;;;;;5069184;28;20020;-74
2024/01/28 10:21:16;;;;;;;23.02;11.55;;;3.70;99.90;;;;;;5050658;28;20031;-72
2024/01/28 10:23:45;;;;;;;19.90;10.48;;;3.90;99.90;;;;;;5064512;28;20025;-72
2024/01/28 10:26:11;;;;;;;18.42;8.60;;;4.00;99.90;;;;;;5074430;28;20059;-72
2024/01/28 10:28:40;;;;;;;13.77;8.45;;;4.20;99.90;;;;;;5060318;28;20037;-72
2024/01/28 10:31:06;;;;;;;17.57;9.10;;;4.30;99.90;;;;;;5067831;28;20485;-72
2024/01/28 10:33:32;;;;;;;14.88;8.85;;;4.40;99.90;;;;;;5056992;28;20079;-72
2024/01/28 10:36:01;;;;;;;13.90;8.90;;;4.50;99.90;;;;;;5045757;28;20123;-71
2024/01/28 10:38:30;;;;;;;14.18;8.65;;;4.70;99.90;;;;;;5064608;28;20033;-72
2024/01/28 10:40:56;;;;;;;13.53;8.83;;;4.80;99.90;;;;;;5046970;28;20481;-71
2024/01/28 10:43:26;;;;;;;12.95;8.25;;;4.90;99.90;;;;;;5066010;28;20039;-72
2024/01/28 10:45:55;;;;;;;14.63;8.32;;;;;;;;;;5078218;28;20036;-71
2024/01/28 10:48:22;;;;;;;17.40;9.38;;;5.10;99.90;;;;;;5076416;28;20035;-73
2024/01/28 10:50:50;;;;;;;16.48;9.65;;;5.20;99.90;;;;;;5078309;28;20020;-71
2024/01/28 10:53:17;;;;;;;14.88;8.98;;;5.20;99.90;;;;;;5068809;28;20024;-74
2024/01/28 10:55:44;;;;;;;12.98;8.55;;;5.40;99.90;;;;;;5070704;28;20032;-73
2024/01/28 10:58:11;;;;;;;12.93;7.97;;;5.50;99.90;;;;;;5069443;28;20075;-71
2024/01/28 11:00:37;;;;;;;12.98;8.82;;;5.50;99.90;;;;;;5052505;28;20501;-72
2024/01/28 11:03:06;;;;;;;13.98;8.48;;;5.60;99.90;;;;;;5053557;28;20024;-71
2024/01/28 11:05:35;;;;;;;13.50;8.80;;;5.80;99.90;;;;;;5057630;28;20631;-71
2024/01/28 11:08:00;;;;;;;14.65;8.65;;;5.90;99.90;;;;;;5076777;28;20421;-70
2024/01/28 11:10:30;;;;;;;15.43;9.10;;;6.00;99.90;;;;;;5085753;28;20024;-72
2024/01/28 11:12:57;;;;;;;16.02;8.65;;;6.10;99.90;;;;;;5083328;28;20020;-72
2024/01/28 11:15:23;;;;;;;14.50;8.43;;;6.10;99.90;;;;;;5072725;28;20032;-74
2024/01/28 11:17:50;;;;;;;13.93;8.35;;;6.10;99.90;;;;;;5056740;28;20555;-71
2024/01/28 11:20:27;;;;;;;13.82;7.82;;;6.20;99.90;;;;;;5055159;28;20035;-75
2024/01/28 11:22:58;;;;;;;14.00;8.40;;;6.30;99.90;;;;;;5072412;28;20028;-73
2024/01/28 11:25:26;;;;;;;16.90;8.45;;;6.20;99.90;;;;;;5046909;28;20616;-72
2024/01/28 11:28:05;;;;;;;14.57;9.18;;;6.30;99.90;;;;;;5063277;28;20028;-73
2024/01/28 11:30:31;;;;;;;15.60;9.10;;;;;;;;;;5066671;28;20534;-75
2024/01/28 11:33:08;;;;;;;14.23;8.85;;;;;;;;;;5069010;28;20104;-76
2024/01/28 11:35:36;;;;;;;15.45;9.05;;;;;;;;;;5064202;28;20086;-75
2024/01/28 11:38:05;;;;;;;14.35;8.52;;;;;;;;;;5077960;28;20485;-75
2024/01/28 11:40:35;;;;;;;13.35;8.52;;;;;;;;;;5071087;28;20545;-75
2024/01/28 11:43:01;;;;;;;12.68;8.80;;;;;;;;;;5072628;28;20013;-72
2024/01/28 11:45:27;;;;;;;11.32;7.88;;;;;;;;;;5070381;28;20278;-72
2024/01/28 11:47:53;;;;;;;11.57;7.85;;;;;;;;;;5070949;28;20021;-72
2024/01/28 11:50:19;;;;;;;13.95;8.73;;;;;;;;;;5072660;28;20484;-72
2024/01/28 11:52:46;;;;;;;14.63;8.02;;;;;;;;;;5074068;28;20023;-73
2024/01/28 11:55:13;;;;;;;10.20;6.57;;;;;;;;;;5065566;28;20028;-73
2024/01/28 11:57:43;;;;;;;10.77;6.75;;;;;;;;;;5061881;28;20535;-72
2024/01/28 12:00:14;;;;;;;12.05;7.35;;;;;;;;;;5067788;28;20027;-73
2024/01/28 12:02:41;;;;;;;9.38;6.18;;;;;;;;;;5068835;28;20021;-72
2024/01/28 12:05:08;;;;;;;10.05;6.25;;;;;;;;;;5068909;28;20035;-73
2024/01/28 12:07:37;;;;;;;9.80;5.65;;;;;;;;;;5054164;28;20025;-72
2024/01/28 12:10:06;;;;;;;7.40;5.32;;;8.20;99.90;;;;;;5045989;28;20024;-72
2024/01/28 12:12:34;;;;;;;11.85;5.72;;;8.20;99.90;;;;;;5071394;28;20017;-72
2024/01/28 12:15:07;;;;;;;7.78;5.25;;;8.30;99.90;;;;;;5069761;28;20381;-72
2024/01/28 12:17:35;;;;;;;8.43;5.45;;;8.30;99.90;;;;;;5071173;28;20021;-72
2024/01/28 12:20:01;;;;;;;6.72;4.40;;;8.40;99.90;;;;;;5069950;28;20033;-72
2024/01/28 12:22:26;;;;;;;7.93;4.82;;;8.40;99.90;;;;;;5070366;28;20029;-72
2024/01/28 12:24:53;;;;;;;7.28;4.75;;;8.50;99.90;;;;;;5059008;28;20024;-72
2024/01/28 12:27:18;;;;;;;7.70;5.20;;;8.60;99.90;;;;;;5070811;28;20023;-72
2024/01/28 12:29:45;;;;;;;6.93;4.70;;;8.60;99.90;;;;;;5070011;28;20017;-72
2024/01/28 12:32:11;;;;;;;7.82;4.93;;;8.80;99.90;;;;;;5052762;28;20023;-72
2024/01/28 12:34:36;;;;;;;6.38;4.68;;;8.90;99.90;;;;;;5069940;28;20020;-72
2024/01/28 12:37:03;;;;;;;5.10;4.20;;;8.90;99.90;;;;;;5060602;28;20413;-72
2024/01/28 12:39:29;;;;;;;9.30;4.60;;;9.00;99.90;;;;;;5052528;28;20029;-72
2024/01/28 12:41:55;;;;;;;6.53;4.15;;;9.10;99.90;;;;;;5051936;28;20512;-72
2024/01/28 12:44:21;;;;;;;7.82;4.75;;;9.30;99.90;;;;;;5067546;28;20083;-73
2024/01/28 12:46:46;;;;;;;5.78;4.65;;;9.30;99.90;;;;;;5069266;28;20025;-72
2024/01/28 12:49:14;;;;;;;6.85;3.80;;;9.40;99.90;;;;;;5070367;28;20031;-72
2024/01/28 12:51:40;;;;;;;6.55;4.03;;;9.50;99.90;;;;;;5052529;28;20052;-72
2024/01/28 12:54:08;;;;;;;6.85;3.92;;;9.50;99.90;;;;;;5066531;28;20172;-72
2024/01/28 12:56:33;;;;;;;6.95;4.00;;;9.60;99.90;;;;;;5070983;28;20036;-72
2024/01/28 12:58:59;;;;;;;5.68;4.32;;;9.70;99.90;;;;;;5058599;28;20027;-72
2024/01/28 13:01:25;;;;;;;5.25;3.88;;;9.90;99.90;;;;;;5070763;28;20021;-72
2024/01/28 13:03:51;;;;;;;6.55;3.45;;;9.90;99.90;;;;;;5069052;28;20536;-72
2024/01/28 13:06:17;;;;;;;5.05;3.58;;;9.90;99.90;;;;;;5070715;28;20047;-73
2024/01/28 13:08:42;;;;;;;5.22;3.45;;;9.90;99.90;;;;;;5054563;28;20158;-72
2024/01/28 13:11:08;;;;;;;6.07;3.95;;;10.00;99.90;;;;;;5069724;28;20343;-72
2024/01/28 13:13:36;;;;;;;5.90;3.33;;;10.10;99.40;;;;;;5067199;28;20110;-72
2024/01/28 13:16:02;;;;;;;4.55;3.00;;;10.10;99.80;;;;;;5065248;28;20376;-72
2024/01/28 13:18:28;;;;;;;5.07;3.35;;;10.00;99.60;;;;;;5070470;28;20028;-72
2024/01/28 13:20:54;;;;;;;5.38;3.40;;;;;;;;;;5070558;28;20099;-72
2024/01/28 13:23:20;;;;;;;6.72;3.38;;;;;;;;;;5051498;28;20024;-72
2024/01/28 13:25:46;;;;;;;5.53;3.15;;;;;;;;;;5069533;28;20135;-72
2024/01/28 13:28:12;;;;;;;5.15;3.00;;;;;;;;;;5069825;28;20031;-72
2024/01/28 13:30:38;;;;;;;4.78;3.35;;;;;;;;;;5070355;28;20016;-72
2024/01/28 13:33:04;;;;;;;6.03;3.50;;;;;;;;;;5058497;28;20017;-72
2024/01/28 13:35:32;;;;;;;5.68;3.15;;;;;;;;;;5069603;28;20028;-72
2024/01/28 13:37:59;;;;;;;6.10;3.20;;;;;;;;;;5068395;28;20025;-72
2024/01/28 13:40:25;;;;;;;7.18;3.15;;;;;;;;;;5070044;28;20028;-72
2024/01/28 13:42:51;;;;;;;4.15;2.80;;;;;;;;;;5068924;28;20025;-72
2024/01/28 13:45:17;;;;;;;3.80;2.50;;;;;;;;;;5069407;28;20099;-72
2024/01/28 13:47:44;;;;;;;5.78;3.35;;;;;;;;;;5062651;28;20028;-72
2024/01/28 13:50:10;;;;;;;3.22;2.22;;;;;;;;;;5057164;28;20571;-72